createdAt,value
2018-06-29T00:02:11.273Z,22.10
2018-06-29T00:04:38.570Z,22.00
2018-06-29T00:07:06.073Z,22.00
2018-06-29T00:09:33.393Z,22.00
2018-06-29T00:12:00.690Z,22.00
2018-06-29T00:14:28.002Z,22.10
2018-06-29T00:16:55.287Z,22.00
2018-06-29T00:19:22.545Z,22.00
2018-06-29T00:21:49.860Z,22.00
2018-06-29T00:24:17.155Z,22.00
2018-06-29T00:26:44.518Z,22.00
2018-06-29T00:29:11.839Z,22.00
2018-06-29T00:31:39.227Z,22.00
2018-06-29T00:34:06.534Z,22.00
2018-06-29T00:36:34.834Z,22.00
2018-06-29T00:39:02.230Z,22.00
2018-06-29T00:41:29.585Z,22.00
2018-06-29T00:43:56.898Z,22.00
2018-06-29T00:46:24.190Z,22.00
2018-06-29T00:48:51.526Z,22.00
2018-06-29T00:51:18.855Z,22.00
2018-06-29T00:53:46.197Z,22.00
2018-06-29T00:56:13.475Z,22.00
2018-06-29T00:58:40.765Z,22.00
2018-06-29T01:01:08.095Z,22.00
2018-06-29T01:03:35.421Z,22.00
2018-06-29T01:06:02.734Z,22.00
2018-06-29T01:08:30.093Z,22.00
2018-06-29T01:10:57.426Z,22.00
2018-06-29T01:13:24.662Z,22.00
2018-06-29T01:15:51.957Z,22.00
2018-06-29T01:18:19.328Z,22.00
2018-06-29T01:20:46.575Z,22.00
2018-06-29T01:23:13.882Z,22.00
2018-06-29T01:25:41.215Z,22.00
2018-06-29T01:28:08.490Z,22.00
2018-06-29T01:30:35.790Z,22.00
2018-06-29T01:33:03.986Z,22.00
2018-06-29T01:35:31.336Z,22.00
2018-06-29T01:37:58.577Z,22.00
2018-06-29T01:40:25.980Z,22.00
2018-06-29T01:42:53.282Z,22.00
2018-06-29T01:45:20.574Z,22.00
2018-06-29T01:47:47.927Z,22.00
2018-06-29T01:50:15.265Z,21.90
2018-06-29T01:52:42.659Z,22.00
2018-06-29T01:55:10.042Z,22.00
2018-06-29T01:57:37.542Z,22.00
2018-06-29T02:00:04.991Z,21.90
2018-06-29T02:02:32.270Z,22.00
2018-06-29T02:04:59.501Z,22.00
2018-06-29T02:07:26.810Z,21.90
2018-06-29T02:09:54.192Z,21.90
2018-06-29T02:12:21.470Z,21.90
2018-06-29T02:14:48.766Z,21.90
2018-06-29T02:17:15.993Z,21.90
2018-06-29T02:19:43.294Z,21.90
2018-06-29T02:22:11.178Z,21.90
2018-06-29T02:24:38.505Z,21.90
2018-06-29T02:27:06.014Z,21.90
2018-06-29T02:29:33.574Z,21.90
2018-06-29T02:32:00.878Z,21.90
2018-06-29T02:34:28.226Z,21.80
2018-06-29T02:36:55.614Z,21.90
2018-06-29T02:39:22.907Z,21.90
2018-06-29T02:41:50.197Z,21.80
2018-06-29T02:44:17.535Z,21.80
2018-06-29T02:46:44.766Z,21.80
2018-06-29T02:49:12.038Z,21.80
2018-06-29T02:51:39.332Z,21.80
2018-06-29T02:54:06.554Z,21.80
2018-06-29T02:56:33.905Z,21.80
2018-06-29T02:59:01.166Z,21.70
2018-06-29T03:01:28.454Z,21.80
2018-06-29T03:03:55.809Z,21.80
2018-06-29T03:06:23.161Z,21.70
2018-06-29T03:08:50.474Z,21.80
2018-06-29T03:11:17.717Z,21.70
2018-06-29T03:13:45.115Z,21.70
2018-06-29T03:16:12.413Z,21.80
2018-06-29T03:18:39.706Z,21.70
2018-06-29T03:21:07.077Z,21.70
2018-06-29T03:23:34.450Z,21.70
2018-06-29T03:26:01.827Z,21.70
2018-06-29T03:28:29.123Z,21.70
2018-06-29T03:30:56.378Z,21.70
2018-06-29T03:33:23.609Z,21.70
2018-06-29T03:35:51.270Z,21.70
2018-06-29T03:38:18.787Z,21.70
2018-06-29T03:40:46.336Z,21.70
2018-06-29T03:43:13.582Z,21.70
2018-06-29T03:45:41.344Z,21.70
2018-06-29T03:48:08.580Z,21.70
2018-06-29T03:50:35.902Z,21.70
2018-06-29T03:55:30.657Z,21.70
2018-06-29T03:57:57.974Z,21.70
2018-06-29T04:00:25.868Z,21.70
2018-06-29T04:02:53.149Z,21.70
2018-06-29T04:05:20.448Z,21.70
2018-06-29T04:07:47.755Z,21.70
2018-06-29T04:10:15.027Z,21.60
2018-06-29T04:12:42.331Z,21.60
2018-06-29T04:15:09.651Z,21.70
2018-06-29T04:17:37.097Z,21.60
2018-06-29T04:20:04.669Z,21.60
2018-06-29T04:22:32.006Z,21.70
2018-06-29T04:25:01.982Z,21.60
2018-06-29T04:27:29.530Z,21.60
2018-06-29T04:29:56.823Z,21.70
2018-06-29T04:32:24.131Z,21.60
2018-06-29T04:34:51.372Z,21.70
2018-06-29T04:37:18.709Z,21.60
2018-06-29T04:39:46.078Z,21.60
2018-06-29T04:42:13.330Z,21.60
2018-06-29T04:44:40.727Z,21.60
2018-06-29T04:47:08.049Z,21.60
2018-06-29T04:49:35.331Z,21.60
2018-06-29T04:52:02.666Z,21.60
2018-06-29T04:54:29.993Z,21.60
2018-06-29T04:56:57.301Z,21.60
2018-06-29T04:59:24.550Z,21.70
2018-06-29T05:04:20.302Z,21.60
2018-06-29T05:06:48.391Z,21.60
2018-06-29T05:09:15.778Z,21.70
2018-06-29T05:11:43.076Z,21.60
2018-06-29T05:14:10.361Z,21.70
2018-06-29T05:16:37.661Z,21.70
2018-06-29T05:19:04.965Z,21.70
2018-06-29T05:21:32.249Z,21.60
2018-06-29T05:23:59.598Z,21.70
2018-06-29T05:26:26.910Z,21.70
2018-06-29T05:31:21.494Z,21.70
2018-06-29T05:33:48.846Z,21.80
2018-06-29T05:36:16.108Z,21.80
2018-06-29T05:38:43.485Z,21.70
2018-06-29T05:41:10.761Z,21.70
2018-06-29T05:43:38.077Z,21.70
2018-06-29T05:46:05.496Z,21.70
2018-06-29T05:48:32.950Z,21.70
2018-06-29T05:51:00.215Z,21.80
2018-06-29T05:53:27.486Z,21.80
2018-06-29T05:55:54.726Z,21.80
2018-06-29T05:58:22.033Z,21.70
2018-06-29T06:00:49.354Z,21.80
2018-06-29T06:03:16.610Z,21.80
2018-06-29T06:05:43.945Z,21.70
2018-06-29T06:08:11.278Z,21.80
2018-06-29T06:10:38.625Z,21.80
2018-06-29T06:13:06.019Z,21.80
2018-06-29T06:15:33.327Z,21.80
2018-06-29T06:18:00.594Z,21.80
2018-06-29T06:20:28.286Z,21.80
2018-06-29T06:23:00.631Z,21.80
2018-06-29T06:25:27.906Z,21.90
2018-06-29T06:27:55.245Z,21.80
2018-06-29T06:30:22.573Z,21.80
2018-06-29T06:32:50.564Z,21.80
2018-06-29T06:35:17.853Z,21.80
2018-06-29T06:37:45.141Z,21.90
2018-06-29T06:40:12.561Z,21.80
2018-06-29T06:42:39.914Z,21.90
2018-06-29T06:45:07.223Z,21.90
2018-06-29T06:47:34.574Z,21.90
2018-06-29T06:50:01.942Z,21.90
2018-06-29T06:52:29.235Z,21.90
2018-06-29T06:54:56.497Z,21.90
2018-06-29T06:57:23.794Z,21.90
2018-06-29T06:59:51.162Z,21.90
2018-06-29T07:02:18.445Z,21.90
2018-06-29T07:04:45.722Z,22.00
2018-06-29T07:07:13.127Z,21.90
2018-06-29T07:09:40.424Z,21.90
2018-06-29T07:12:07.934Z,21.90
2018-06-29T07:14:35.206Z,22.00
2018-06-29T07:17:02.843Z,22.00
2018-06-29T07:19:30.153Z,22.00
2018-06-29T07:21:57.485Z,22.00
2018-06-29T07:24:24.862Z,22.00
2018-06-29T07:26:52.256Z,22.00
2018-06-29T07:29:19.637Z,22.00
2018-06-29T07:31:46.867Z,22.00
2018-06-29T07:34:14.194Z,22.00
2018-06-29T07:36:41.496Z,22.00
2018-06-29T07:39:09.586Z,22.00
2018-06-29T07:41:36.958Z,22.00
2018-06-29T07:44:04.314Z,22.00
2018-06-29T07:46:31.631Z,22.00
2018-06-29T07:48:58.962Z,22.00
2018-06-29T07:51:26.221Z,22.10
2018-06-29T07:53:53.609Z,22.10
2018-06-29T07:56:21.027Z,22.10
2018-06-29T07:58:48.391Z,22.10
2018-06-29T08:01:15.661Z,22.10
2018-06-29T08:03:43.089Z,22.10
2018-06-29T08:06:10.417Z,22.10
2018-06-29T08:08:37.710Z,22.10
2018-06-29T08:11:05.298Z,22.10
2018-06-29T08:13:32.638Z,22.10
2018-06-29T08:15:59.909Z,22.10
2018-06-29T08:18:27.221Z,22.20
2018-06-29T08:20:56.962Z,22.10
2018-06-29T08:23:33.536Z,22.20
2018-06-29T08:26:13.214Z,22.20
2018-06-29T08:28:40.578Z,22.20
2018-06-29T08:31:09.066Z,22.20
2018-06-29T08:33:37.217Z,22.20
2018-06-29T08:38:32.371Z,22.20
2018-06-29T08:41:01.290Z,22.20
2018-06-29T08:43:28.565Z,22.20
2018-06-29T08:45:56.773Z,22.20
2018-06-29T08:48:24.102Z,22.30
2018-06-29T08:50:51.374Z,22.30
2018-06-29T08:53:18.718Z,22.30
2018-06-29T08:55:46.109Z,22.30
2018-06-29T08:58:13.406Z,22.30
2018-06-29T09:00:40.734Z,22.40
2018-06-29T09:03:08.083Z,22.30
2018-06-29T09:05:35.465Z,22.40
2018-06-29T09:08:02.822Z,22.40
2018-06-29T09:10:30.109Z,22.40
2018-06-29T09:12:57.557Z,22.40
2018-06-29T09:15:24.781Z,22.40
2018-06-29T09:17:52.057Z,22.50
2018-06-29T09:20:19.309Z,22.40
2018-06-29T09:22:46.617Z,22.50
2018-06-29T09:25:14.158Z,22.50
2018-06-29T09:27:41.477Z,22.60
2018-06-29T09:30:08.869Z,22.50
2018-06-29T09:32:36.201Z,22.60
2018-06-29T09:35:03.518Z,22.60
2018-06-29T09:37:30.876Z,22.60
2018-06-29T09:39:58.121Z,22.60
2018-06-29T09:42:25.411Z,22.70
2018-06-29T09:44:52.637Z,22.70
2018-06-29T09:47:19.996Z,22.70
2018-06-29T09:52:15.239Z,22.70
2018-06-29T09:54:42.521Z,22.70
2018-06-29T09:57:09.834Z,22.70
2018-06-29T09:59:37.185Z,22.70
2018-06-29T10:02:05.187Z,22.80
2018-06-29T10:04:32.474Z,22.80
2018-06-29T10:06:59.850Z,22.80
2018-06-29T10:09:27.178Z,22.80
2018-06-29T10:11:54.510Z,22.90
2018-06-29T10:14:21.834Z,22.90
2018-06-29T10:16:49.037Z,22.90
2018-06-29T10:19:16.363Z,22.90
2018-06-29T10:21:43.670Z,22.90
2018-06-29T10:24:11.129Z,22.90
2018-06-29T10:26:38.403Z,22.90
2018-06-29T10:29:05.677Z,23.00
2018-06-29T10:31:33.025Z,23.00
2018-06-29T10:34:00.334Z,23.00
2018-06-29T10:36:27.680Z,23.00
2018-06-29T10:41:22.237Z,23.00
2018-06-29T10:43:49.587Z,23.10
2018-06-29T10:46:16.899Z,23.10
2018-06-29T10:48:44.266Z,23.10
2018-06-29T10:51:11.664Z,23.10
2018-06-29T10:53:39.709Z,23.10
2018-06-29T10:56:07.034Z,23.20
2018-06-29T10:58:34.589Z,23.10
2018-06-29T11:01:01.964Z,23.20
2018-06-29T11:03:29.272Z,23.20
2018-06-29T11:05:56.530Z,23.30
2018-06-29T11:08:23.917Z,23.20
2018-06-29T11:10:51.244Z,23.30
2018-06-29T11:13:18.486Z,23.30
2018-06-29T11:15:45.848Z,23.30
2018-06-29T11:18:13.946Z,23.30
2018-06-29T11:20:41.262Z,23.40
2018-06-29T11:23:08.610Z,23.40
2018-06-29T11:25:35.853Z,23.40
2018-06-29T11:28:03.316Z,23.40
2018-06-29T11:30:30.706Z,23.40
2018-06-29T11:32:57.937Z,23.50
2018-06-29T11:35:25.263Z,23.50
2018-06-29T11:37:52.608Z,23.50
2018-06-29T11:40:19.954Z,23.50
2018-06-29T11:42:47.214Z,23.50
2018-06-29T11:45:14.573Z,23.60
2018-06-29T11:47:41.870Z,23.60
2018-06-29T11:50:09.965Z,23.60
2018-06-29T11:52:37.273Z,23.70
2018-06-29T11:55:04.622Z,23.70
2018-06-29T11:57:31.910Z,23.70
2018-06-29T11:59:59.218Z,23.70
2018-06-29T12:02:26.502Z,23.70
2018-06-29T12:04:53.733Z,23.70
2018-06-29T12:07:21.030Z,23.70
2018-06-29T12:09:48.354Z,23.80
2018-06-29T12:12:15.877Z,23.80
2018-06-29T12:14:42.901Z,23.80
2018-06-29T12:17:10.144Z,23.80
2018-06-29T12:19:37.393Z,23.90
2018-06-29T12:22:04.802Z,23.90
2018-06-29T12:24:32.058Z,23.90
2018-06-29T12:26:59.382Z,23.90
2018-06-29T12:29:27.616Z,23.90
2018-06-29T12:31:54.881Z,23.90
2018-06-29T12:34:22.499Z,24.00
2018-06-29T12:36:49.771Z,24.10
2018-06-29T12:39:17.062Z,24.00
2018-06-29T12:41:44.375Z,24.10
2018-06-29T12:44:11.725Z,24.10
2018-06-29T12:46:39.027Z,24.10
2018-06-29T12:49:06.314Z,24.20
2018-06-29T12:51:33.693Z,24.20
2018-06-29T12:54:00.954Z,24.20
2018-06-29T12:56:28.278Z,24.20
2018-06-29T12:58:55.573Z,24.20
2018-06-29T13:01:22.874Z,24.20
2018-06-29T13:03:50.160Z,24.20
2018-06-29T13:06:17.457Z,24.20
2018-06-29T13:08:44.942Z,24.30
2018-06-29T13:11:12.206Z,24.20
2018-06-29T13:13:39.497Z,24.20
2018-06-29T13:16:06.747Z,24.20
2018-06-29T13:18:34.157Z,24.30
2018-06-29T13:21:02.412Z,24.30
2018-06-29T13:23:29.737Z,24.30
2018-06-29T13:25:57.058Z,24.20
2018-06-29T13:28:24.355Z,24.20
2018-06-29T13:30:51.726Z,24.20
2018-06-29T13:33:18.960Z,24.20
2018-06-29T13:35:46.314Z,24.20
2018-06-29T13:38:13.729Z,24.10
2018-06-29T13:40:41.066Z,24.20
2018-06-29T13:43:08.382Z,24.20
2018-06-29T13:45:35.673Z,24.20
2018-06-29T13:48:03.254Z,24.30
2018-06-29T13:50:31.069Z,24.30
2018-06-29T13:52:58.390Z,24.20
2018-06-29T13:55:26.309Z,24.20
2018-06-29T13:57:53.626Z,24.20
2018-06-29T14:00:20.968Z,24.20
2018-06-29T14:02:48.261Z,24.20
2018-06-29T14:05:15.512Z,24.20
2018-06-29T14:07:42.851Z,24.20
2018-06-29T14:10:10.158Z,24.10
2018-06-29T14:12:37.401Z,24.10
2018-06-29T14:15:04.909Z,24.10
2018-06-29T14:17:32.310Z,24.10
2018-06-29T14:19:59.557Z,24.10
2018-06-29T14:22:26.966Z,24.10
2018-06-29T14:24:54.254Z,24.10
2018-06-29T14:27:21.558Z,24.10
2018-06-29T14:29:48.990Z,24.10
2018-06-29T14:32:16.260Z,24.00
2018-06-29T14:34:43.559Z,24.00
2018-06-29T14:37:10.838Z,24.00
2018-06-29T14:39:38.095Z,24.00
2018-06-29T14:42:05.610Z,24.00
2018-06-29T14:44:32.946Z,24.00
2018-06-29T14:47:00.314Z,24.00
2018-06-29T14:49:27.610Z,24.00
2018-06-29T14:51:54.820Z,24.00
2018-06-29T14:54:22.102Z,24.00
2018-06-29T14:56:49.394Z,24.00
2018-06-29T14:59:16.845Z,24.00
2018-06-29T15:01:44.138Z,24.00
2018-06-29T15:04:12.127Z,24.00
2018-06-29T15:06:39.420Z,24.00
2018-06-29T15:11:34.629Z,24.00
2018-06-29T15:14:01.946Z,24.00
2018-06-29T15:16:29.428Z,24.00
2018-06-29T15:18:56.713Z,22.70
2018-06-29T15:21:24.036Z,23.90
2018-06-29T15:23:51.313Z,23.90
2018-06-29T15:26:18.978Z,23.90
2018-06-29T15:28:46.430Z,24.00
2018-06-29T15:31:13.758Z,23.90
2018-06-29T15:33:41.029Z,24.00
2018-06-29T15:36:08.371Z,23.90
2018-06-29T15:38:35.636Z,23.90
2018-06-29T15:41:02.902Z,23.90
2018-06-29T15:43:30.234Z,23.90
2018-06-29T15:45:57.582Z,23.90
2018-06-29T15:48:24.850Z,23.90
2018-06-29T15:50:52.204Z,23.90
2018-06-29T15:53:19.628Z,23.90
2018-06-29T15:55:46.937Z,23.90
2018-06-29T15:58:14.841Z,23.90
2018-06-29T16:00:42.154Z,23.90
2018-06-29T16:03:10.163Z,23.90
2018-06-29T16:05:37.518Z,23.80
2018-06-29T16:08:05.330Z,23.80
2018-06-29T16:10:32.640Z,23.80
2018-06-29T16:12:59.950Z,23.80
2018-06-29T16:15:27.281Z,23.80
2018-06-29T16:17:54.619Z,23.80
2018-06-29T16:20:21.965Z,23.80
2018-06-29T16:22:49.246Z,23.80
2018-06-29T16:25:16.550Z,23.80
2018-06-29T16:27:43.910Z,23.80
2018-06-29T16:30:11.270Z,23.80
2018-06-29T16:32:38.667Z,23.80
2018-06-29T16:35:06.004Z,23.80
2018-06-29T16:37:33.465Z,23.80
2018-06-29T16:40:00.834Z,23.70
2018-06-29T16:42:28.233Z,23.80
2018-06-29T16:44:55.560Z,23.70
2018-06-29T16:47:22.918Z,23.70
2018-06-29T16:49:50.181Z,23.70
2018-06-29T16:52:17.446Z,23.70
2018-06-29T16:54:44.735Z,23.70
2018-06-29T16:57:12.010Z,23.80
2018-06-29T16:59:39.366Z,23.70
2018-06-29T17:02:06.626Z,23.70
2018-06-29T17:04:33.926Z,23.70
2018-06-29T17:07:01.202Z,23.70
2018-06-29T17:09:28.489Z,23.70
2018-06-29T17:11:55.819Z,23.70
2018-06-29T17:14:23.386Z,23.70
2018-06-29T17:16:50.685Z,23.70
2018-06-29T17:19:17.943Z,23.70
2018-06-29T17:21:45.301Z,23.70
2018-06-29T17:24:12.594Z,23.70
2018-06-29T17:26:39.978Z,23.70
2018-06-29T17:29:07.484Z,23.70
2018-06-29T17:31:34.718Z,23.60
2018-06-29T17:34:02.056Z,23.60
2018-06-29T17:36:29.308Z,23.60
2018-06-29T17:38:56.597Z,23.60
2018-06-29T17:41:23.870Z,23.60
2018-06-29T17:43:51.115Z,23.60
2018-06-29T17:46:18.422Z,23.60
2018-06-29T17:48:45.742Z,23.60
2018-06-29T17:51:13.082Z,23.60
2018-06-29T17:53:40.352Z,23.60
2018-06-29T17:56:07.666Z,23.60
2018-06-29T17:58:34.998Z,23.60
2018-06-29T18:01:02.303Z,23.60
2018-06-29T18:03:29.622Z,23.60
2018-06-29T18:05:56.898Z,23.60
2018-06-29T18:08:24.143Z,23.60
2018-06-29T18:10:51.423Z,23.60
2018-06-29T18:13:18.770Z,23.60
2018-06-29T18:15:46.035Z,23.60
2018-06-29T18:18:13.280Z,23.60
2018-06-29T18:20:40.609Z,23.60
2018-06-29T18:23:07.957Z,23.50
2018-06-29T18:25:35.216Z,23.50
2018-06-29T18:28:02.479Z,23.50
2018-06-29T18:30:29.844Z,23.50
2018-06-29T18:32:57.146Z,23.50
2018-06-29T18:35:24.451Z,23.50
2018-06-29T18:37:51.793Z,23.50
2018-06-29T18:40:19.094Z,23.50
2018-06-29T18:42:46.366Z,23.50
2018-06-29T18:45:13.653Z,23.50
2018-06-29T18:47:40.880Z,23.50
2018-06-29T18:50:08.262Z,23.50
2018-06-29T18:52:35.530Z,23.50
2018-06-29T18:55:02.942Z,23.50
2018-06-29T18:57:30.235Z,23.50
2018-06-29T18:59:57.626Z,23.50
2018-06-29T19:02:25.082Z,23.50
2018-06-29T19:04:52.381Z,23.50
2018-06-29T19:07:19.776Z,23.50
2018-06-29T19:09:47.066Z,23.50
2018-06-29T19:12:14.470Z,23.50
2018-06-29T19:14:41.735Z,23.50
2018-06-29T19:17:08.982Z,23.50
2018-06-29T19:19:36.301Z,23.50
2018-06-29T19:22:03.543Z,23.50
2018-06-29T19:24:30.798Z,23.50
2018-06-29T19:26:58.325Z,23.50
2018-06-29T19:29:25.612Z,23.40
2018-06-29T19:31:52.954Z,23.40
2018-06-29T19:34:20.189Z,23.40
2018-06-29T19:36:47.474Z,23.40
2018-06-29T19:39:14.777Z,23.40
2018-06-29T19:41:42.105Z,23.40
2018-06-29T19:44:10.139Z,23.40
2018-06-29T19:46:37.571Z,23.40
2018-06-29T19:49:04.995Z,23.40
2018-06-29T19:51:32.437Z,23.40
2018-06-29T19:53:59.876Z,23.40
2018-06-29T19:56:27.132Z,23.40
2018-06-29T19:58:54.520Z,23.40
2018-06-29T20:01:21.818Z,23.30
2018-06-29T20:03:49.172Z,23.30
2018-06-29T20:06:16.448Z,23.30
2018-06-29T20:08:43.787Z,23.30
2018-06-29T20:11:11.135Z,23.30
2018-06-29T20:13:38.409Z,23.30
2018-06-29T20:16:05.754Z,23.30
2018-06-29T20:18:33.045Z,23.30
2018-06-29T20:21:00.398Z,23.30
2018-06-29T20:23:27.648Z,23.30
2018-06-29T20:25:55.043Z,23.30
2018-06-29T20:28:22.257Z,23.30
2018-06-29T20:30:49.499Z,23.30
2018-06-29T20:33:16.885Z,23.30
2018-06-29T20:35:44.127Z,23.20
2018-06-29T20:38:11.419Z,23.20
2018-06-29T20:40:38.745Z,23.20
2018-06-29T20:43:06.137Z,23.20
2018-06-29T20:45:33.477Z,23.20
2018-06-29T20:48:00.803Z,23.20
2018-06-29T20:50:28.230Z,23.20
2018-06-29T20:52:56.547Z,23.20
2018-06-29T20:55:30.111Z,23.20
2018-06-29T20:57:57.409Z,23.20
2018-06-29T21:00:25.642Z,23.20
2018-06-29T21:02:52.881Z,23.20
2018-06-29T21:05:20.134Z,23.20
2018-06-29T21:07:47.528Z,23.20
2018-06-29T21:10:14.834Z,23.20
2018-06-29T21:12:43.131Z,23.20
2018-06-29T21:15:10.717Z,23.20
2018-06-29T21:17:38.154Z,23.20
2018-06-29T21:20:05.513Z,23.10
2018-06-29T21:22:32.837Z,23.10
2018-06-29T21:25:01.084Z,23.20
2018-06-29T21:27:29.010Z,23.90
2018-06-29T21:29:56.350Z,23.10
2018-06-29T21:32:23.722Z,23.10
2018-06-29T21:34:51.055Z,23.10
2018-06-29T21:37:21.291Z,23.10
2018-06-29T21:39:49.314Z,23.10
2018-06-29T21:42:16.722Z,23.10
2018-06-29T21:44:44.026Z,23.20
2018-06-29T21:47:13.269Z,23.10
2018-06-29T21:49:42.688Z,23.10
2018-06-29T21:52:10.984Z,23.10
2018-06-29T21:54:40.850Z,23.10
2018-06-29T21:57:08.190Z,23.10
2018-06-29T21:59:35.489Z,23.10
2018-06-29T22:02:02.874Z,23.20
2018-06-29T22:04:30.202Z,23.10
2018-06-29T22:06:57.533Z,23.10
2018-06-29T22:09:25.012Z,23.10
2018-06-29T22:11:52.298Z,23.10
2018-06-29T22:14:19.739Z,23.10
2018-06-29T22:16:47.229Z,23.10
2018-06-29T22:19:14.621Z,23.00
2018-06-29T22:21:42.126Z,23.00
2018-06-29T22:24:10.067Z,23.00
2018-06-29T22:26:37.574Z,23.00
2018-06-29T22:29:07.272Z,23.00
2018-06-29T22:31:34.762Z,23.00
2018-06-29T22:34:02.359Z,23.00
2018-06-29T22:36:29.824Z,23.00
2018-06-29T22:38:57.609Z,23.00
2018-06-29T22:41:25.004Z,23.00
2018-06-29T22:43:52.478Z,23.00
2018-06-29T22:46:22.602Z,23.00
2018-06-29T22:48:50.282Z,23.00
2018-06-29T22:51:17.634Z,23.00
2018-06-29T22:53:44.899Z,23.00
2018-06-29T22:56:12.813Z,23.00
2018-06-29T22:58:40.370Z,23.00
2018-06-29T23:01:08.465Z,23.00
2018-06-29T23:03:41.371Z,23.00
2018-06-29T23:06:08.737Z,22.90
2018-06-29T23:08:36.130Z,22.90
2018-06-29T23:11:04.045Z,22.90
2018-06-29T23:13:31.629Z,22.90
2018-06-29T23:15:59.090Z,22.90
2018-06-29T23:18:27.371Z,22.90
2018-06-29T23:20:55.461Z,22.90
2018-06-29T23:23:23.053Z,22.90
2018-06-29T23:25:50.405Z,22.90
2018-06-29T23:28:17.889Z,22.90
2018-06-29T23:30:45.378Z,22.90
2018-06-29T23:33:12.843Z,22.80
2018-06-29T23:35:40.160Z,22.80
2018-06-29T23:38:07.521Z,22.90
2018-06-29T23:40:34.898Z,22.80
2018-06-29T23:43:02.142Z,22.80
2018-06-29T23:45:29.481Z,22.80
2018-06-29T23:47:56.781Z,22.80
2018-06-29T23:50:24.193Z,22.70
2018-06-29T23:52:51.652Z,22.70
2018-06-29T23:55:19.058Z,22.70
2018-06-29T23:57:46.318Z,22.70
